Time;durP1;ratioP1;P1;durP2;ratioP2;P2;SDS_P1;SDS_P2;PMS_P1;PMS_P2;Temp;Humidity;BMP_temperature;BMP_pressure;BME280_temperature;BME280_humidity;BME280_pressure;Samples;Min_cycle;Max_cycle;Signal;HPM_P1;HPM_P2
2023/04/04 00:00:43;;;;;;;3.28;1.40;;;;;;;15.75;39.69;100445.94;5091459;28;20056;-69
2023/04/04 00:03:12;;;;;;;3.25;1.50;;;;;;;15.72;39.72;100448.84;5091464;28;20048;-69
2023/04/04 00:05:42;;;;;;;2.20;1.30;;;;;;;15.70;39.70;100448.09;5091602;28;20047;-69
2023/04/04 00:08:10;;;;;;;3.03;1.58;;;;;;;15.68;39.63;100455.44;5091598;28;20048;-69
2023/04/04 00:10:39;;;;;;;2.40;1.40;;;;;;;15.65;39.72;100451.16;5091491;28;20101;-68
2023/04/04 00:13:08;;;;;;;3.72;1.35;;;;;;;15.64;39.56;100462.06;5091436;28;20074;-70
2023/04/04 00:15:36;;;;;;;2.50;1.40;;;;;;;15.61;39.65;100456.88;5073564;28;20149;-70
2023/04/04 00:18:05;;;;;;;2.25;1.40;;;;;;;15.60;39.58;100460.53;5091420;28;20055;-70
2023/04/04 00:20:33;;;;;;;3.10;1.27;;;;;;;15.59;39.51;100462.34;5091318;28;20128;-70
2023/04/04 00:23:02;;;;;;;2.38;1.38;;;;;;;15.57;39.38;100464.31;5091457;28;20109;-71
2023/04/04 00:25:31;;;;;;;2.67;1.42;;;;;;;15.56;39.50;100464.44;5094766;28;20044;-70
2023/04/04 00:28:00;;;;;;;2.83;1.60;;;;;;;15.53;39.44;100468.19;5095089;28;20083;-69
2023/04/04 00:30:28;;;;;;;3.17;1.50;;;;;;;15.52;39.47;100471.88;5095205;28;20072;-69
2023/04/04 00:32:56;;;;;;;3.35;1.42;;;;;;;15.51;39.57;100472.00;5095237;28;20399;-70
2023/04/04 00:35:25;;;;;;;2.35;1.38;;;;;;;15.48;39.39;100473.09;5105500;28;20118;-70
2023/04/04 00:37:53;;;;;;;3.15;1.38;;;;;;;15.48;39.52;100477.63;5115400;28;20377;-70
2023/04/04 00:40:23;;;;;;;2.35;1.20;;;;;;;15.44;39.31;100477.84;5115191;28;20088;-69
2023/04/04 00:42:51;;;;;;;3.15;1.38;;;;;;;15.42;39.30;100474.41;5115038;28;20127;-70
2023/04/04 00:45:20;;;;;;;3.03;1.40;;;;;;;15.42;39.40;100471.72;5115176;28;20093;-69
2023/04/04 00:47:50;;;;;;;3.08;1.50;;;;;;;15.40;39.41;100467.44;5115125;28;20529;-70
2023/04/04 00:50:18;;;;;;;3.05;1.48;;;;;;;15.37;39.23;100465.84;5115133;28;20656;-69
2023/04/04 00:52:46;;;;;;;2.70;1.40;;;;;;;15.35;39.27;100470.50;5115030;28;20047;-69
2023/04/04 00:55:15;;;;;;;2.28;1.27;;;;;;;15.35;39.39;100467.81;5114881;28;20492;-69
2023/04/04 00:57:45;;;;;;;2.70;1.60;;;;;;;15.33;39.39;100467.03;5114964;28;20071;-69
2023/04/04 01:00:15;;;;;;;2.92;1.48;;;;;;;15.32;39.31;100454.59;5114993;28;20400;-69
2023/04/04 01:02:43;;;;;;;2.10;1.10;;;;;;;15.31;39.38;100454.72;5114808;28;20048;-71
2023/04/04 01:05:12;;;;;;;2.80;1.38;;;;;;;15.26;39.29;100440.78;5114786;28;20039;-69
2023/04/04 01:07:41;;;;;;;3.10;1.52;;;;;;;15.27;39.30;100437.97;5114808;28;20079;-68
2023/04/04 01:10:11;;;;;;;2.35;1.27;;;;;;;15.26;39.32;100443.47;5114726;28;20093;-69
2023/04/04 01:12:41;;;;;;;2.47;1.40;;;;;;;15.22;39.26;100434.78;5114812;28;20097;-70
2023/04/04 01:15:11;;;;;;;2.85;1.40;;;;;;;15.22;39.31;100434.78;5114839;28;20044;-69
2023/04/04 01:17:40;;;;;;;3.33;1.65;;;;;;;15.20;39.21;100420.59;5114597;28;20479;-70
2023/04/04 01:20:12;;;;;;;3.15;1.60;;;;;;;15.18;39.20;100419.88;5114539;28;20104;-69
2023/04/04 01:22:42;;;;;;;2.28;1.40;;;;;;;15.16;39.17;100414.63;5114507;28;20058;-70
2023/04/04 01:25:11;;;;;;;2.45;1.40;;;;;;;15.16;39.28;100403.00;5114543;28;20056;-70
2023/04/04 01:27:41;;;;;;;2.90;1.27;;;;;;;15.15;39.21;100406.66;5114207;28;20051;-68
2023/04/04 01:30:11;;;;;;;2.75;1.40;;;;;;;15.12;39.31;100396.16;5114423;28;20036;-69
2023/04/04 01:32:45;;;;;;;2.83;1.40;;;;;;;15.11;39.32;100397.13;5114331;28;20381;-70
2023/04/04 01:35:22;;;;;;;2.28;1.15;;;;;;;15.08;39.33;100384.78;5113999;28;20395;-69
2023/04/04 01:37:58;;;;;;;2.58;1.20;;;;;;;15.07;39.14;100387.59;5114242;28;20043;-68
2023/04/04 01:40:30;;;;;;;2.47;1.30;;;;;;;15.07;39.22;100384.91;5114146;28;20047;-69
2023/04/04 01:43:00;;;;;;;2.90;1.50;;;;;;;15.04;39.12;100379.75;5114248;28;20073;-68
2023/04/04 01:45:29;;;;;;;2.38;1.30;;;;;;;15.03;39.26;100370.00;5114034;28;20054;-70
2023/04/04 01:47:58;;;;;;;2.13;1.20;;;;;;;15.01;39.30;100378.16;5113965;28;20047;-69
2023/04/04 01:50:26;;;;;;;1.83;1.02;;;;;;;15.00;39.25;100375.59;5113984;28;20065;-70
2023/04/04 01:52:54;;;;;;;3.28;1.38;;;;;;;14.99;39.16;100365.84;5113963;28;20054;-69
2023/04/04 01:55:23;;;;;;;2.40;1.30;;;;;;;14.96;39.03;100363.38;5113799;28;20082;-70
2023/04/04 01:57:51;;;;;;;2.42;1.25;;;;;;;14.95;39.23;100356.28;5113689;28;20549;-68
2023/04/04 02:00:21;;;;;;;2.67;1.38;;;;;;;14.93;39.25;100352.88;5113813;28;20055;-69
2023/04/04 02:02:49;;;;;;;3.13;1.48;;;;;;;14.91;39.08;100354.81;5113742;28;20043;-68
2023/04/04 02:05:17;;;;;;;2.78;1.48;;;;;;;14.92;39.13;100351.16;5113485;28;20514;-69
2023/04/04 02:07:48;;;;;;;2.85;1.45;;;;;;;14.88;39.10;100346.03;5113593;28;20484;-69
2023/04/04 02:10:17;;;;;;;2.33;1.20;;;;;;;14.87;38.95;100344.31;5113555;28;20126;-70
2023/04/04 02:12:45;;;;;;;2.35;1.30;;;;;;;14.86;39.20;100337.25;5113626;28;20043;-69
2023/04/04 02:15:13;;;;;;;2.17;1.40;;;;;;;14.86;39.19;100336.34;5113548;28;20109;-69
2023/04/04 02:17:47;;;;;;;2.20;1.27;;;;;;;14.83;39.03;100326.72;5113545;28;20047;-70
2023/04/04 02:20:17;;;;;;;2.95;1.50;;;;;;;14.81;39.11;100328.66;5113450;28;20036;-69
2023/04/04 02:22:51;;;;;;;2.28;1.30;;;;;;;14.75;39.23;100323.75;5113341;28;20104;-69
2023/04/04 02:25:19;;;;;;;2.60;1.25;;;;;;;14.78;39.01;100325.38;5113158;28;20548;-69
2023/04/04 02:27:47;;;;;;;1.98;1.23;;;;;;;14.77;39.15;100320.97;5113093;28;20051;-69
2023/04/04 02:30:15;;;;;;;2.35;1.40;;;;;;;14.75;39.17;100314.84;5113268;28;20880;-69
2023/04/04 02:32:46;;;;;;;3.00;1.30;;;;;;;14.73;39.18;100311.44;5113134;28;20047;-69
2023/04/04 02:35:15;;;;;;;2.45;1.33;;;;;;;14.72;39.23;100307.91;5113135;28;20040;-70
2023/04/04 02:37:45;;;;;;;2.70;1.38;;;;;;;14.71;39.16;100306.19;5112999;28;20052;-70
2023/04/04 02:40:14;;;;;;;2.65;1.38;;;;;;;14.70;39.10;100311.69;5113075;28;20043;-70
2023/04/04 02:42:43;;;;;;;2.53;1.38;;;;;;;14.67;39.24;100314.56;5113033;28;20101;-70
2023/04/04 02:45:13;;;;;;;3.38;1.58;;;;;;;14.66;39.11;100302.97;5112901;28;20135;-70
2023/04/04 02:47:42;;;;;;;2.80;1.35;;;;;;;14.65;39.29;100313.84;5112337;28;20040;-70
2023/04/04 02:50:12;;;;;;;3.13;1.50;;;;;;;14.64;39.30;100309.44;5113038;28;20101;-69
2023/04/04 02:52:40;;;;;;;2.60;1.50;;;;;;;14.63;39.21;100313.97;5112905;28;20048;-70
2023/04/04 02:55:09;;;;;;;3.42;1.42;;;;;;;14.60;39.35;100319.56;5112687;28;20714;-68
2023/04/04 02:57:37;;;;;;;3.13;1.48;;;;;;;14.59;39.25;100323.22;5112557;28;20044;-70
2023/04/04 03:00:08;;;;;;;2.22;1.38;;;;;;;14.56;39.14;100316.25;5112733;28;20043;-70
2023/04/04 03:02:36;;;;;;;2.60;1.30;;;;;;;14.57;39.35;100322.47;5112586;28;20067;-71
2023/04/04 03:05:05;;;;;;;3.20;1.40;;;;;;;14.56;39.17;100328.81;5112508;28;20119;-70
2023/04/04 03:07:34;;;;;;;2.55;1.40;;;;;;;14.54;39.32;100325.41;5112708;28;20046;-70
2023/04/04 03:10:03;;;;;;;2.78;1.30;;;;;;;14.52;39.20;100328.19;5112577;28;20048;-69
2023/04/04 03:12:31;;;;;;;2.95;1.58;;;;;;;14.52;39.22;100328.19;5112395;28;20395;-69
2023/04/04 03:14:59;;;;;;;2.58;1.42;;;;;;;14.50;39.06;100329.28;5112383;28;20163;-70
2023/04/04 03:17:28;;;;;;;2.42;1.25;;;;;;;14.48;39.18;100331.25;5112307;28;20506;-69
2023/04/04 03:19:56;;;;;;;2.65;1.50;;;;;;;14.47;39.34;100334.88;5112446;28;20070;-70
2023/04/04 03:22:24;;;;;;;2.78;1.25;;;;;;;14.46;39.44;100341.22;5112406;28;20054;-69
2023/04/04 03:24:54;;;;;;;2.70;1.42;;;;;;;14.45;39.36;100339.50;5112377;28;20516;-70
2023/04/04 03:27:22;;;;;;;3.05;1.50;;;;;;;14.45;39.41;100331.44;5112142;28;20048;-70
2023/04/04 03:29:51;;;;;;;3.08;1.73;;;;;;;14.43;39.29;100338.72;5112267;28;20043;-70
2023/04/04 03:32:20;;;;;;;3.38;1.92;;;;;;;14.42;39.42;100345.06;5112227;28;20075;-69
2023/04/04 03:34:48;;;;;;;3.60;1.98;;;;;;;14.40;39.27;100347.03;5112185;28;20047;-70
2023/04/04 03:37:16;;;;;;;3.58;1.63;;;;;;;14.37;39.42;100336.50;5112152;28;20093;-70
2023/04/04 03:39:44;;;;;;;3.33;1.65;;;;;;;14.36;39.16;100335.63;5112128;28;20051;-70
2023/04/04 03:42:20;;;;;;;3.13;1.67;;;;;;;14.37;39.19;100344.53;5112047;28;20056;-70
2023/04/04 03:44:48;;;;;;;3.58;1.80;;;;;;;14.36;39.27;100345.53;5111983;28;20613;-69
2023/04/04 03:47:17;;;;;;;3.22;1.67;;;;;;;14.32;39.19;100343.06;5112009;28;20404;-69
2023/04/04 03:49:45;;;;;;;3.13;1.58;;;;;;;14.30;39.44;100342.34;5111978;28;20488;-69
2023/04/04 03:52:13;;;;;;;3.63;1.75;;;;;;;14.32;39.28;100351.13;5112027;28;20039;-69
2023/04/04 03:54:41;;;;;;;2.42;1.45;;;;;;;14.30;39.25;100352.22;5112020;28;20089;-69
2023/04/04 03:57:09;;;;;;;3.97;1.90;;;;;;;14.26;39.31;100339.97;5111960;28;20044;-70
2023/04/04 03:59:40;;;;;;;3.85;1.80;;;;;;;14.27;39.37;100344.38;5116108;28;20057;-70
2023/04/04 04:02:08;;;;;;;3.03;1.70;;;;;;;14.26;39.15;100338.16;5116243;28;20452;-70
2023/04/04 04:04:36;;;;;;;4.03;1.50;;;;;;;14.25;39.29;100336.44;5116052;28;20044;-70
2023/04/04 04:07:04;;;;;;;3.17;1.60;;;;;;;14.25;39.16;100338.28;5116007;28;20158;-69
2023/04/04 04:09:32;;;;;;;2.63;1.40;;;;;;;14.22;39.26;100339.38;5115897;28;20048;-70
2023/04/04 04:12:01;;;;;;;3.58;1.65;;;;;;;14.22;39.17;100331.31;5115953;28;20043;-70
2023/04/04 04:14:29;;;;;;;3.17;1.60;;;;;;;14.21;39.07;100332.28;5115826;28;20079;-70
2023/04/04 04:16:59;;;;;;;3.80;1.50;;;;;;;14.19;39.02;100331.56;5115812;28;20491;-70
2023/04/04 04:19:27;;;;;;;3.28;1.63;;;;;;;14.18;39.10;100329.81;5115724;28;20380;-70
2023/04/04 04:21:55;;;;;;;2.50;1.50;;;;;;;14.19;39.12;100333.38;5115875;28;20446;-70
2023/04/04 04:24:23;;;;;;;3.17;1.60;;;;;;;14.19;39.05;100336.06;5115561;28;20462;-70
2023/04/04 04:26:51;;;;;;;3.38;1.55;;;;;;;14.16;39.06;100337.13;5115545;28;20044;-70
2023/04/04 04:29:19;;;;;;;3.20;1.52;;;;;;;14.16;39.09;100336.25;5115461;28;20138;-70
2023/04/04 04:31:47;;;;;;;3.30;1.50;;;;;;;14.15;38.97;100335.41;5115552;28;20040;-70
2023/04/04 04:34:17;;;;;;;3.58;1.60;;;;;;;14.12;39.06;100335.66;5115331;28;20126;-69
2023/04/04 04:36:46;;;;;;;3.78;1.60;;;;;;;14.14;39.21;100340.91;5115291;28;20046;-70
2023/04/04 04:39:14;;;;;;;3.85;1.60;;;;;;;14.13;39.18;100332.00;5115937;28;20483;-70
2023/04/04 04:41:42;;;;;;;2.88;1.67;;;;;;;14.14;39.56;100324.78;5117211;28;20055;-70
2023/04/04 04:44:10;;;;;;;2.47;1.50;;;;;;;14.19;39.68;100334.22;5117164;28;20051;-70
2023/04/04 04:46:38;;;;;;;2.70;1.50;;;;;;;14.24;39.81;100328.50;5115277;28;20047;-70
2023/04/04 04:49:06;;;;;;;2.55;1.40;;;;;;;14.33;39.67;100331.38;5115161;28;20047;-69
2023/04/04 04:51:36;;;;;;;3.15;1.58;;;;;;;14.40;39.72;100328.25;5115146;28;20052;-71
2023/04/04 04:54:04;;;;;;;3.35;1.67;;;;;;;14.49;39.52;100338.31;5115022;28;20075;-70
2023/04/04 04:56:32;;;;;;;2.47;1.30;;;;;;;14.58;39.64;100343.84;5115289;28;20191;-69
2023/04/04 04:59:00;;;;;;;3.40;1.55;;;;;;;14.64;39.49;100331.78;5115010;28;20055;-69
2023/04/04 05:01:29;;;;;;;3.22;1.50;;;;;;;14.73;39.49;100338.28;5114845;28;20576;-70
2023/04/04 05:03:57;;;;;;;2.20;1.45;;;;;;;14.79;39.37;100329.78;5097002;28;20131;-69
2023/04/04 05:06:26;;;;;;;3.85;1.73;;;;;;;14.85;39.24;100340.03;5094190;28;20063;-68
2023/04/04 05:08:55;;;;;;;3.55;1.52;;;;;;;14.88;39.25;100332.59;5094173;28;20055;-69
2023/04/04 05:11:23;;;;;;;3.03;1.52;;;;;;;14.93;39.20;100323.31;5093661;28;20109;-69
2023/04/04 05:13:51;;;;;;;2.85;1.60;;;;;;;14.97;39.03;100324.81;5093896;28;20044;-69
2023/04/04 05:16:20;;;;;;;3.08;1.50;;;;;;;15.03;39.22;100324.31;5093950;28;20073;-69
2023/04/04 05:18:48;;;;;;;3.00;1.63;;;;;;;15.10;39.27;100329.09;5093859;28;20467;-71
2023/04/04 05:21:16;;;;;;;2.30;1.20;;;;;;;15.22;39.19;100329.97;5093658;28;20043;-70
2023/04/04 05:23:45;;;;;;;2.38;1.35;;;;;;;15.32;39.05;100330.97;5093717;28;20126;-69
2023/04/04 05:26:14;;;;;;;2.22;1.52;;;;;;;15.43;39.01;100341.72;5092685;28;20465;-70
2023/04/04 05:28:42;;;;;;;2.97;1.60;;;;;;;15.54;38.98;100342.69;5093696;28;20079;-70
2023/04/04 05:31:10;;;;;;;3.45;1.67;;;;;;;15.63;38.92;100340.19;5093749;28;20055;-70
2023/04/04 05:33:39;;;;;;;3.20;1.58;;;;;;;15.73;38.67;100343.00;5093713;28;20040;-70
2023/04/04 05:36:07;;;;;;;2.60;1.38;;;;;;;15.80;38.52;100340.66;5093966;28;20110;-68
2023/04/04 05:38:36;;;;;;;2.78;1.42;;;;;;;15.85;38.58;100343.84;5093340;28;20036;-70
2023/04/04 05:41:04;;;;;;;3.28;1.42;;;;;;;15.91;38.64;100354.09;5093437;28;20107;-70
2023/04/04 05:43:33;;;;;;;3.20;1.77;;;;;;;15.95;38.47;100348.38;5093321;28;20123;-71
2023/04/04 05:46:01;;;;;;;3.17;1.60;;;;;;;15.99;38.43;100355.19;5093278;28;20059;-69
2023/04/04 05:48:30;;;;;;;3.40;1.70;;;;;;;15.98;38.36;100336.50;5093256;28;20079;-68
2023/04/04 05:50:58;;;;;;;2.88;1.63;;;;;;;16.04;38.24;100344.06;5093393;28;20044;-71
2023/04/04 05:53:26;;;;;;;2.88;1.55;;;;;;;15.98;38.25;100331.97;5096804;28;20048;-66
2023/04/04 05:55:54;;;;;;;3.30;1.80;;;;;;;16.04;38.24;100338.69;5092914;28;20049;-67
2023/04/04 05:58:23;;;;;;;3.67;2.10;;;;;;;16.09;38.22;100351.75;5093084;28;20044;-72
2023/04/04 06:00:52;;;;;;;3.65;1.90;;;;;;;16.08;38.13;100345.53;5093395;28;20237;-71
2023/04/04 06:03:20;;;;;;;3.83;1.70;;;;;;;16.07;38.18;100348.34;5093088;28;20652;-71
2023/04/04 06:05:52;;;;;;;4.40;2.22;;;;;;;16.07;38.08;100361.78;5093068;28;20139;-71
2023/04/04 06:08:20;;;;;;;3.90;1.95;;;;;;;16.02;38.13;100360.34;5092859;28;20506;-71
2023/04/04 06:10:48;;;;;;;3.08;1.63;;;;;;;16.03;37.98;100356.66;5093003;28;20127;-71
2023/04/04 06:13:16;;;;;;;3.33;1.77;;;;;;;16.01;38.13;100349.69;5092917;28;20048;-71
2023/04/04 06:15:44;;;;;;;3.47;1.90;;;;;;;16.00;38.04;100351.50;5092944;28;20050;-71
2023/04/04 06:18:15;;;;;;;4.05;1.63;;;;;;;15.97;38.04;100350.91;5092921;28;20051;-71
2023/04/04 06:20:43;;;;;;;2.30;1.45;;;;;;;15.96;38.00;100352.75;5092570;28;20143;-71
2023/04/04 06:23:12;;;;;;;2.92;1.70;;;;;;;15.95;38.02;100360.97;5092688;28;20052;-71
2023/04/04 06:25:40;;;;;;;3.25;1.77;;;;;;;15.91;38.09;100363.03;5092576;28;20044;-70
2023/04/04 06:28:09;;;;;;;4.95;1.80;;;;;;;15.88;38.06;100368.66;5092360;28;20492;-70
2023/04/04 06:30:38;;;;;;;3.50;1.70;;;;;;;15.86;38.08;100350.94;5093144;28;20050;-72
2023/04/04 06:33:06;;;;;;;2.78;1.55;;;;;;;15.84;38.04;100340.31;5102331;28;20141;-71
2023/04/04 06:35:36;;;;;;;4.05;1.90;;;;;;;15.81;38.18;100318.16;5095425;28;20763;-71
2023/04/04 06:38:05;;;;;;;4.65;1.92;;;;;;;15.80;38.02;100309.25;5098263;28;20132;-72
2023/04/04 06:40:33;;;;;;;4.85;1.80;;;;;;;15.78;38.05;100319.28;5092195;28;20068;-72
2023/04/04 06:43:02;;;;;;;4.18;1.65;;;;;;;15.75;38.48;100314.16;5091461;28;20078;-71
2023/04/04 06:45:32;;;;;;;3.78;1.80;;;;;;;15.72;38.50;100320.63;5091909;28;20210;-72
2023/04/04 06:48:01;;;;;;;4.43;2.10;;;;;;;15.69;38.18;100312.81;5092163;28;20071;-71
2023/04/04 06:50:31;;;;;;;3.17;1.65;;;;;;;15.68;38.01;100286.03;5092163;28;20491;-72
2023/04/04 06:53:02;;;;;;;3.60;1.83;;;;;;;15.64;37.97;100304.28;5092159;28;20929;-71
2023/04/04 06:55:30;;;;;;;3.25;1.70;;;;;;;15.62;37.90;100300.81;5092059;28;20135;-72
2023/04/04 06:57:58;;;;;;;3.95;1.92;;;;;;;15.61;38.21;100314.38;5092123;28;20123;-72
2023/04/04 07:00:26;;;;;;;4.00;1.88;;;;;;;15.58;38.15;100306.56;5092031;28;20058;-73
2023/04/04 07:02:58;;;;;;;2.90;1.63;;;;;;;15.55;38.16;100309.50;5092066;28;20048;-72
2023/04/04 07:05:27;;;;;;;3.13;1.80;;;;;;;15.53;38.31;100320.34;5092000;28;20044;-72
2023/04/04 07:07:55;;;;;;;3.72;1.95;;;;;;;15.51;37.93;100316.06;5092016;28;20048;-72
2023/04/04 07:10:26;;;;;;;4.18;1.90;;;;;;;15.49;37.94;100318.03;5092019;28;20465;-71
2023/04/04 07:12:54;;;;;;;3.05;1.60;;;;;;;15.46;38.01;100322.69;5091972;28;20119;-72
2023/04/04 07:15:22;;;;;;;4.10;1.70;;;;;;;15.45;38.07;100323.66;5091897;28;20048;-71
2023/04/04 07:17:50;;;;;;;3.60;1.55;;;;;;;15.43;38.15;100333.66;5091947;28;20051;-72
2023/04/04 07:20:19;;;;;;;3.08;1.65;;;;;;;15.42;38.17;100329.25;5092568;28;20515;-72
2023/04/04 07:22:48;;;;;;;3.20;1.73;;;;;;;15.38;38.11;100333.19;5093269;28;20043;-71
2023/04/04 07:25:17;;;;;;;4.18;2.05;;;;;;;15.38;38.13;100337.69;5092794;28;20048;-72
2023/04/04 07:27:46;;;;;;;3.90;1.80;;;;;;;15.35;38.03;100344.19;5092851;28;20048;-72
2023/04/04 07:30:15;;;;;;;2.25;1.33;;;;;;;15.34;38.15;100345.13;5093410;28;20120;-70
2023/04/04 07:32:43;;;;;;;3.42;1.70;;;;;;;15.32;38.00;100341.72;5093132;28;20105;-71
2023/04/04 07:35:12;;;;;;;3.80;1.80;;;;;;;15.31;38.09;100340.00;5094384;28;20040;-71
2023/04/04 07:37:40;;;;;;;3.85;1.70;;;;;;;15.31;38.08;100348.06;5093843;28;20044;-71
2023/04/04 07:40:10;;;;;;;3.85;1.58;;;;;;;15.29;38.14;100350.03;5093998;28;20044;-71
2023/04/04 07:42:43;;;;;;;3.72;1.60;;;;;;;15.28;38.22;100351.00;5093471;28;20040;-71
2023/04/04 07:45:13;;;;;;;2.90;1.67;;;;;;;15.27;38.08;100351.97;5093346;28;20080;-71
2023/04/04 07:47:43;;;;;;;4.05;1.55;;;;;;;15.26;38.19;100344.03;5093809;28;20134;-71
2023/04/04 07:50:11;;;;;;;3.15;1.70;;;;;;;15.23;38.04;100347.81;5093705;28;20051;-71
2023/04/04 07:52:39;;;;;;;3.20;1.73;;;;;;;15.24;38.16;100345.97;5093678;28;20044;-71
2023/04/04 07:55:08;;;;;;;3.35;1.60;;;;;;;15.23;38.12;100355.88;5093741;28;20051;-71
2023/04/04 07:57:41;;;;;;;4.10;1.88;;;;;;;15.22;38.19;100343.41;5092988;28;20051;-72
2023/04/04 08:00:10;;;;;;;4.30;1.70;;;;;;;15.19;38.22;100338.28;5093268;28;20044;-70
2023/04/04 08:02:40;;;;;;;3.67;1.80;;;;;;;15.19;38.17;100349.03;5092969;28;20056;-72
2023/04/04 08:05:09;;;;;;;4.35;1.67;;;;;;;15.18;38.24;100358.94;5093838;28;20099;-71
2023/04/04 08:07:37;;;;;;;2.85;1.70;;;;;;;15.17;38.22;100345.63;5093005;28;20089;-72
2023/04/04 08:10:07;;;;;;;4.10;1.77;;;;;;;15.17;38.32;100340.25;5093549;28;20040;-72
2023/04/04 08:12:35;;;;;;;2.90;1.63;;;;;;;15.13;38.40;100338.75;5093628;28;20048;-72
2023/04/04 08:15:03;;;;;;;3.42;1.75;;;;;;;15.15;38.30;100336.78;5093697;28;20043;-71
2023/04/04 08:17:32;;;;;;;3.08;1.67;;;;;;;15.14;38.17;100333.25;5094369;28;20051;-71
2023/04/04 08:20:02;;;;;;;3.90;1.60;;;;;;;15.14;38.26;100340.47;5093150;28;20119;-71
2023/04/04 08:22:31;;;;;;;3.45;1.60;;;;;;;15.10;38.12;100341.69;5092460;28;20080;-71
2023/04/04 08:24:59;;;;;;;3.00;1.48;;;;;;;15.12;38.17;100350.47;5091591;28;20400;-72
2023/04/04 08:27:28;;;;;;;2.65;1.40;;;;;;;15.13;38.25;100352.19;5091640;28;20092;-71
2023/04/04 08:30:02;;;;;;;3.53;1.50;;;;;;;15.12;38.28;100347.78;5091593;28;20076;-72
2023/04/04 08:32:35;;;;;;;3.55;1.50;;;;;;;15.11;38.15;100346.94;5091341;28;20131;-71
2023/04/04 08:35:05;;;;;;;3.90;1.92;;;;;;;15.11;38.12;100336.19;5091346;28;20089;-71
2023/04/04 08:37:34;;;;;;;2.22;1.40;;;;;;;15.12;38.13;100345.09;5091237;28;20066;-70
2023/04/04 08:40:03;;;;;;;3.45;1.70;;;;;;;15.11;38.13;100351.44;5091158;28;20477;-71
2023/04/04 08:42:35;;;;;;;4.25;1.83;;;;;;;15.10;38.01;100347.06;5091113;28;20415;-70
2023/04/04 08:45:04;;;;;;;2.85;1.63;;;;;;;15.10;37.82;100339.84;5092303;28;20047;-72
2023/04/04 08:47:34;;;;;;;2.90;1.40;;;;;;;15.11;38.06;100335.34;5095276;28;20059;-71
2023/04/04 08:50:06;;;;;;;3.25;1.67;;;;;;;15.09;38.12;100327.41;5094649;28;20040;-71
2023/04/04 08:52:35;;;;;;;3.03;1.40;;;;;;;15.10;38.08;100331.78;5094769;28;20306;-72
2023/04/04 08:55:05;;;;;;;3.45;1.75;;;;;;;15.10;38.03;100325.56;5094888;28;20051;-71
2023/04/04 08:57:33;;;;;;;2.25;1.38;;;;;;;15.11;37.74;100313.84;5096384;28;20048;-69
2023/04/04 09:00:04;;;;;;;3.20;1.60;;;;;;;15.10;37.93;100323.75;5095734;28;20075;-69
2023/04/04 09:02:37;;;;;;;2.90;1.50;;;;;;;15.09;38.05;100318.50;5095453;28;20044;-72
2023/04/04 09:05:09;;;;;;;3.38;1.70;;;;;;;15.10;38.01;100320.19;5094715;28;20409;-71
2023/04/04 09:07:38;;;;;;;2.95;1.50;;;;;;;15.07;37.85;100310.56;5094502;28;20067;-71
2023/04/04 09:10:11;;;;;;;3.30;1.67;;;;;;;15.11;37.96;100319.22;5094364;28;20044;-72
2023/04/04 09:12:43;;;;;;;4.70;1.88;;;;;;;15.12;38.02;100310.19;5094354;28;20075;-71
2023/04/04 09:15:12;;;;;;;3.00;1.63;;;;;;;15.10;37.98;100309.44;5094416;28;20044;-71
2023/04/04 09:17:40;;;;;;;2.90;1.58;;;;;;;15.10;37.98;100312.13;5094290;28;20043;-71
2023/04/04 09:20:39;;;;;;;3.25;1.70;;;;;;;15.12;37.96;100310.19;5094449;28;20127;-72
2023/04/04 09:23:10;;;;;;;2.83;1.60;;;;;;;15.11;38.09;100311.16;5094066;28;20508;-71
2023/04/04 09:25:46;;;;;;;2.83;1.58;;;;;;;15.11;38.05;100308.47;5094069;28;20481;-72
2023/04/04 09:28:31;;;;;;;4.30;1.80;;;;;;;15.11;38.00;100308.47;5093913;28;20078;-72
2023/04/04 09:31:01;;;;;;;2.95;1.60;;;;;;;15.14;37.91;100313.59;5094041;28;20456;-71
2023/04/04 09:33:32;;;;;;;2.55;1.60;;;;;;;15.15;38.18;100309.94;5093889;28;20044;-71
2023/04/04 09:36:03;;;;;;;2.90;1.63;;;;;;;15.14;38.07;100308.22;5093862;28;20152;-70
2023/04/04 09:38:31;;;;;;;2.67;1.42;;;;;;;15.15;38.02;100299.19;5093745;28;20075;-71
2023/04/04 09:40:59;;;;;;;3.20;1.52;;;;;;;15.15;38.03;100299.19;5093833;28;20089;-72
2023/04/04 09:43:30;;;;;;;2.30;1.60;;;;;;;15.15;38.08;100296.50;5093718;28;20044;-71
2023/04/04 09:46:01;;;;;;;2.65;1.50;;;;;;;15.16;38.16;100301.78;5093599;28;20481;-71
2023/04/04 09:48:31;;;;;;;3.42;1.42;;;;;;;15.17;38.20;100297.25;5093691;28;20056;-71
2023/04/04 09:51:04;;;;;;;3.72;1.73;;;;;;;15.17;38.36;100297.25;5093362;28;20043;-70
2023/04/04 09:53:34;;;;;;;3.25;1.45;;;;;;;15.18;38.32;100288.22;5093422;28;20055;-71
2023/04/04 09:56:03;;;;;;;3.10;1.70;;;;;;;15.20;38.26;100280.03;5093182;28;20485;-71
2023/04/04 09:58:34;;;;;;;2.80;1.45;;;;;;;15.21;38.22;100287.97;5093373;28;20485;-71
2023/04/04 10:01:05;;;;;;;3.70;1.60;;;;;;;15.20;38.41;100285.41;5093442;28;20543;-71
2023/04/04 10:03:33;;;;;;;2.35;1.25;;;;;;;15.22;38.47;100295.03;5093498;28;20416;-71
2023/04/04 10:06:05;;;;;;;3.03;1.65;;;;;;;15.24;38.36;100295.78;5093040;28;20547;-72
2023/04/04 10:08:37;;;;;;;3.03;1.70;;;;;;;15.24;38.41;100298.47;5093249;28;20097;-71
2023/04/04 10:11:05;;;;;;;2.78;1.50;;;;;;;15.26;38.40;100296.53;5093193;28;20048;-71
2023/04/04 10:13:42;;;;;;;4.03;1.85;;;;;;;15.27;38.53;100297.38;5092890;28;20052;-71
2023/04/04 10:16:11;;;;;;;3.33;1.60;;;;;;;15.29;38.55;100301.66;5093114;28;20047;-72
2023/04/04 10:18:40;;;;;;;3.08;1.63;;;;;;;15.28;38.52;100289.19;5093044;28;20051;-72
2023/04/04 10:21:09;;;;;;;3.65;1.60;;;;;;;15.30;38.73;100291.75;5092979;28;20048;-71
2023/04/04 10:23:45;;;;;;;2.60;1.35;;;;;;;15.32;38.47;100281.72;5092748;28;20504;-73
2023/04/04 10:26:14;;;;;;;2.35;1.40;;;;;;;15.32;38.58;100279.91;5092907;28;20083;-71
2023/04/04 10:28:43;;;;;;;2.75;1.40;;;;;;;15.34;38.19;100272.56;5092677;28;20418;-71
2023/04/04 10:31:20;;;;;;;2.55;1.35;;;;;;;15.34;38.52;100267.19;5092715;28;20400;-70
2023/04/04 10:34:00;;;;;;;2.72;1.40;;;;;;;15.38;38.41;100267.81;5092584;28;20048;-71
2023/04/04 10:36:36;;;;;;;3.70;1.60;;;;;;;15.38;38.50;100257.94;5092699;28;20044;-72
2023/04/04 10:39:13;;;;;;;2.50;1.40;;;;;;;15.40;38.49;100266.72;5092527;28;20385;-71
2023/04/04 10:41:42;;;;;;;3.53;1.70;;;;;;;15.42;38.39;100264.75;5092666;28;20044;-71
2023/04/04 10:44:18;;;;;;;2.92;1.40;;;;;;;15.43;38.50;100271.84;5092569;28;20050;-71
2023/04/04 10:46:49;;;;;;;2.75;1.50;;;;;;;15.45;38.33;100269.91;5092416;28;20063;-71
2023/04/04 10:49:18;;;;;;;3.28;1.60;;;;;;;15.46;38.22;100277.00;5092501;28;20048;-71
2023/04/04 10:51:49;;;;;;;3.22;1.70;;;;;;;15.46;38.12;100266.22;5092448;28;20048;-73
2023/04/04 10:54:25;;;;;;;3.28;1.58;;;;;;;15.50;38.14;100266.84;5092104;28;20396;-71
2023/04/04 10:56:59;;;;;;;3.63;1.63;;;;;;;15.53;38.17;100276.47;5092079;28;20043;-71
2023/04/04 10:59:27;;;;;;;2.53;1.30;;;;;;;15.54;38.44;100267.44;5092074;28;20050;-70
2023/04/04 11:01:57;;;;;;;3.13;1.50;;;;;;;15.58;38.31;100268.91;5092084;28;20044;-71
2023/04/04 11:04:33;;;;;;;3.08;1.45;;;;;;;15.60;38.37;100267.84;5092119;28;20044;-72
2023/04/04 11:07:16;;;;;;;2.50;1.50;;;;;;;15.61;38.36;100263.31;5091861;28;20447;-71
2023/04/04 11:10:12;;;;;;;2.72;1.42;;;;;;;15.65;38.36;100271.03;5091881;28;20123;-71
2023/04/04 11:12:44;;;;;;;2.42;1.45;;;;;;;15.64;38.39;100252.31;5092124;28;20040;-72
2023/04/04 11:15:15;;;;;;;3.42;1.40;;;;;;;15.70;38.15;100257.19;5091832;28;20467;-71
2023/04/04 11:18:05;;;;;;;2.65;1.50;;;;;;;15.72;38.44;100256.06;5091855;28;20067;-72
2023/04/04 11:20:54;;;;;;;2.60;1.50;;;;;;;15.77;38.36;100247.66;5092122;28;20048;-71
2023/04/04 11:23:26;;;;;;;2.83;1.23;;;;;;;15.76;38.33;100251.31;5091818;28;20074;-71
2023/04/04 11:25:55;;;;;;;2.97;1.50;;;;;;;15.83;38.42;100251.69;5092004;28;20051;-71
2023/04/04 11:28:28;;;;;;;3.03;1.38;;;;;;;15.84;38.39;100248.88;5091680;28;20447;-71
2023/04/04 11:31:25;;;;;;;1.90;1.10;;;;;;;15.90;38.29;100248.34;5092187;28;20501;-70
2023/04/04 11:33:56;;;;;;;2.35;1.40;;;;;;;15.93;38.38;100242.72;5091768;28;20048;-69
2023/04/04 11:36:40;;;;;;;2.10;1.30;;;;;;;15.96;38.38;100252.38;5091743;28;20047;-72